createdAt,value
2018-12-23T00:00:26.937Z,19.63
2018-12-23T00:04:33.513Z,13.03
2018-12-23T00:08:40.028Z,11.57
2018-12-23T00:12:46.425Z,10.28
2018-12-23T00:16:52.616Z,47.17
2018-12-23T00:20:59.527Z,14.90
2018-12-23T00:25:05.693Z,13.78
2018-12-23T00:29:11.824Z,14.73
2018-12-23T00:33:18.381Z,13.13
2018-12-23T00:37:24.781Z,10.27
2018-12-23T00:41:31.096Z,10.67
2018-12-23T00:45:39.094Z,15.70
2018-12-23T00:49:45.229Z,11.20
2018-12-23T00:53:51.138Z,10.73
2018-12-23T00:57:57.498Z,19.70
2018-12-23T01:02:04.139Z,12.97
2018-12-23T01:06:10.540Z,23.73
2018-12-23T01:10:17.141Z,13.00
2018-12-23T01:14:24.192Z,12.73
2018-12-23T01:18:30.384Z,13.00
2018-12-23T01:22:37.315Z,10.20
2018-12-23T01:26:44.753Z,11.73
2018-12-23T01:30:51.302Z,12.83
2018-12-23T01:34:58.191Z,10.58
2018-12-23T01:39:05.110Z,9.50
2018-12-23T01:43:12.151Z,10.67
2018-12-23T01:47:18.772Z,9.90
2018-12-23T01:51:25.951Z,13.30
2018-12-23T01:55:32.064Z,9.43
2018-12-23T01:59:38.187Z,10.32
2018-12-23T02:03:44.931Z,15.83
2018-12-23T02:07:51.412Z,13.03
2018-12-23T02:11:58.270Z,12.30
2018-12-23T02:16:04.600Z,10.63
2018-12-23T02:20:11.083Z,9.15
2018-12-23T02:24:17.811Z,9.15
2018-12-23T02:28:24.639Z,8.20
2018-12-23T02:32:31.553Z,11.23
2018-12-23T02:36:38.351Z,11.83
2018-12-23T02:40:45.541Z,12.37
2018-12-23T02:44:53.082Z,16.30
2018-12-23T02:48:59.948Z,10.57
2018-12-23T02:53:06.526Z,10.68
2018-12-23T02:57:13.016Z,10.63
2018-12-23T03:01:19.668Z,10.23
2018-12-23T03:05:26.274Z,10.57
2018-12-23T03:09:33.172Z,12.00
2018-12-23T03:13:54.373Z,14.05
2018-12-23T03:18:00.531Z,10.43
2018-12-23T03:22:07.016Z,10.08
2018-12-23T03:26:13.813Z,9.90
2018-12-23T03:30:22.437Z,12.20
2018-12-23T03:34:28.904Z,10.87
2018-12-23T03:38:36.100Z,8.83
2018-12-23T03:42:42.150Z,10.53
2018-12-23T03:46:48.442Z,9.80
2018-12-23T03:50:54.511Z,9.90
2018-12-23T03:55:06.670Z,11.57
2018-12-23T03:59:13.810Z,10.43
2018-12-23T04:03:20.187Z,9.90
2018-12-23T04:07:26.637Z,11.53
2018-12-23T04:11:33.567Z,10.30
2018-12-23T04:15:40.254Z,10.20
2018-12-23T04:19:46.534Z,10.00
2018-12-23T04:23:52.729Z,10.57
2018-12-23T04:27:59.258Z,11.07
2018-12-23T04:32:06.130Z,10.07
2018-12-23T04:36:13.051Z,11.50
2018-12-23T04:40:19.659Z,10.60
2018-12-23T04:44:26.027Z,11.00
2018-12-23T04:48:32.622Z,11.37
2018-12-23T04:52:38.685Z,10.80
2018-12-23T04:56:44.796Z,10.00
2018-12-23T05:00:51.293Z,11.10
2018-12-23T05:04:57.336Z,11.13
2018-12-23T05:09:04.149Z,10.07
2018-12-23T05:13:10.536Z,9.75
2018-12-23T05:17:17.000Z,9.30
2018-12-23T05:21:23.713Z,10.20
2018-12-23T05:25:29.769Z,9.28
2018-12-23T05:29:35.620Z,9.78
2018-12-23T05:33:41.512Z,10.63
2018-12-23T05:37:47.758Z,9.93
2018-12-23T05:41:54.011Z,10.48
2018-12-23T05:46:00.516Z,12.37
2018-12-23T05:50:07.185Z,9.88
2018-12-23T05:54:13.314Z,9.00
2018-12-23T05:58:19.632Z,9.00
2018-12-23T06:02:26.136Z,10.17
2018-12-23T06:06:32.319Z,10.67
2018-12-23T06:10:38.274Z,11.07
2018-12-23T06:14:44.730Z,9.53
2018-12-23T06:18:51.085Z,9.83
2018-12-23T06:22:56.783Z,9.33
2018-12-23T06:27:03.303Z,9.30
2018-12-23T06:31:10.314Z,9.77
2018-12-23T06:35:16.670Z,9.13
2018-12-23T06:39:23.023Z,9.55
2018-12-23T06:43:29.120Z,9.53
2018-12-23T06:47:35.350Z,9.43
2018-12-23T06:51:41.682Z,9.57
2018-12-23T06:55:48.074Z,8.83
2018-12-23T06:59:54.017Z,11.00
2018-12-23T07:04:00.317Z,8.40
2018-12-23T07:08:06.277Z,9.17
2018-12-23T07:12:12.905Z,10.20
2018-12-23T07:16:21.923Z,9.30
2018-12-23T07:20:28.201Z,9.77
2018-12-23T07:24:34.488Z,9.90
2018-12-23T07:28:41.071Z,9.57
2018-12-23T07:32:47.055Z,9.40
2018-12-23T07:36:53.818Z,8.93
2018-12-23T07:41:00.114Z,9.13
2018-12-23T07:45:07.290Z,9.03
2018-12-23T07:49:13.464Z,8.87
2018-12-23T07:53:20.314Z,9.17
2018-12-23T07:57:26.490Z,9.60
2018-12-23T08:01:33.144Z,9.03
2018-12-23T08:05:39.390Z,10.07
2018-12-23T08:09:45.684Z,12.00
2018-12-23T08:13:51.894Z,11.07
2018-12-23T08:17:58.219Z,8.70
2018-12-23T08:22:04.433Z,8.97
2018-12-23T08:26:10.800Z,8.70
2018-12-23T08:30:17.171Z,8.90
2018-12-23T08:34:23.781Z,9.50
2018-12-23T08:38:29.624Z,9.20
2018-12-23T08:42:36.069Z,9.60
2018-12-23T08:46:42.656Z,9.50
2018-12-23T08:50:49.822Z,8.43
2018-12-23T08:54:56.987Z,10.40
2018-12-23T08:59:03.170Z,10.00
2018-12-23T09:03:09.716Z,14.47
2018-12-23T09:07:16.670Z,8.88
2018-12-23T09:11:22.634Z,9.10
2018-12-23T09:15:29.078Z,8.50
2018-12-23T09:19:35.544Z,9.47
2018-12-23T09:23:41.762Z,10.83
2018-12-23T09:27:47.961Z,11.10
2018-12-23T09:31:54.346Z,9.87
2018-12-23T09:36:00.586Z,8.33
2018-12-23T09:40:07.314Z,10.10
2018-12-23T09:44:13.717Z,9.80
2018-12-23T09:48:20.474Z,9.40
2018-12-23T09:52:26.638Z,9.50
2018-12-23T09:56:32.899Z,8.90
2018-12-23T10:00:39.393Z,11.43
2018-12-23T10:04:45.853Z,8.87
2018-12-23T10:08:51.954Z,9.33
2018-12-23T10:12:58.270Z,11.20
2018-12-23T10:17:04.770Z,10.00
2018-12-23T10:21:10.993Z,10.75
2018-12-23T10:25:17.648Z,10.10
2018-12-23T10:29:24.121Z,13.68
2018-12-23T10:33:30.233Z,11.10
2018-12-23T10:37:37.043Z,10.18
2018-12-23T10:41:43.893Z,11.12
2018-12-23T10:45:49.964Z,10.72
2018-12-23T10:49:56.332Z,10.63
2018-12-23T10:54:02.675Z,10.67
2018-12-23T10:58:08.979Z,11.20
2018-12-23T11:02:15.069Z,10.80
2018-12-23T11:06:21.211Z,11.47
2018-12-23T11:10:27.282Z,13.10
2018-12-23T11:14:33.854Z,17.87
2018-12-23T11:18:41.034Z,29.60
2018-12-23T11:22:47.531Z,33.70
2018-12-23T11:26:53.933Z,50.27
2018-12-23T11:31:00.106Z,31.40
2018-12-23T11:35:06.480Z,28.00
2018-12-23T11:39:12.862Z,25.70
2018-12-23T11:43:19.600Z,25.83
2018-12-23T11:47:26.102Z,17.73
2018-12-23T11:51:32.735Z,20.70
2018-12-23T11:55:38.758Z,24.67
2018-12-23T11:59:45.363Z,17.33
2018-12-23T12:03:52.351Z,17.87
2018-12-23T12:07:58.122Z,14.43
2018-12-23T12:12:04.253Z,15.67
2018-12-23T12:16:10.996Z,16.40
2018-12-23T12:20:17.166Z,19.80
2018-12-23T12:24:24.149Z,21.07
2018-12-23T12:28:30.303Z,18.77
2018-12-23T12:32:36.638Z,27.02
2018-12-23T12:36:43.474Z,81.05
2018-12-23T12:40:49.673Z,23.95
2018-12-23T12:44:55.648Z,22.00
2018-12-23T12:49:02.136Z,87.65
2018-12-23T12:53:08.187Z,61.43
2018-12-23T12:57:14.984Z,21.83
2018-12-23T13:01:21.064Z,20.00
2018-12-23T13:05:27.379Z,24.80
2018-12-23T13:09:33.477Z,21.73
2018-12-23T13:13:39.670Z,20.90
2018-12-23T13:17:46.065Z,20.47
2018-12-23T13:21:52.670Z,17.53
2018-12-23T13:25:59.277Z,23.40
2018-12-23T13:30:07.763Z,17.30
2018-12-23T13:34:12.120Z,23.02
2018-12-23T13:38:17.904Z,20.43
2018-12-23T13:42:24.051Z,17.77
2018-12-23T13:46:30.455Z,21.50
2018-12-23T13:50:37.428Z,19.50
2018-12-23T13:54:44.314Z,20.50
2018-12-23T13:58:50.696Z,19.32
2018-12-23T14:02:57.608Z,22.43
2018-12-23T14:07:04.305Z,19.73
2018-12-23T14:11:11.940Z,18.97
2018-12-23T14:15:18.399Z,15.37
2018-12-23T14:19:24.831Z,19.37
2018-12-23T14:23:31.514Z,14.40
2018-12-23T14:27:37.661Z,15.60
2018-12-23T14:31:43.854Z,14.90
2018-12-23T14:35:50.561Z,13.73
2018-12-23T14:39:56.942Z,14.70
2018-12-23T14:44:03.129Z,18.50
2018-12-23T14:48:09.568Z,16.50
2018-12-23T14:52:16.032Z,14.43
2018-12-23T14:56:22.254Z,16.07
2018-12-23T15:00:28.507Z,15.27
2018-12-23T15:04:35.206Z,16.40
2018-12-23T15:08:41.569Z,15.53
2018-12-23T15:12:48.012Z,16.53
2018-12-23T15:16:54.251Z,14.93
2018-12-23T15:21:01.106Z,15.57
2018-12-23T15:25:08.465Z,15.28
2018-12-23T15:29:14.898Z,14.73
2018-12-23T15:33:21.539Z,16.83
2018-12-23T15:37:28.008Z,15.17
2018-12-23T15:41:34.251Z,14.73
2018-12-23T15:45:40.870Z,16.87
2018-12-23T15:49:47.694Z,15.60
2018-12-23T15:53:53.904Z,14.75
2018-12-23T15:58:00.842Z,15.07
2018-12-23T16:02:06.811Z,14.47
2018-12-23T16:06:13.632Z,15.50
2018-12-23T16:10:20.313Z,14.43
2018-12-23T16:14:26.705Z,14.43
2018-12-23T16:18:33.080Z,14.30
2018-12-23T16:22:39.603Z,16.83
2018-12-23T16:26:46.216Z,13.47
2018-12-23T16:30:52.764Z,12.83
2018-12-23T16:34:58.986Z,15.93
2018-12-23T16:39:05.442Z,14.40
2018-12-23T16:43:12.004Z,15.40
2018-12-23T16:47:18.211Z,14.40
2018-12-23T16:51:24.771Z,13.30
2018-12-23T16:55:31.251Z,13.08
2018-12-23T16:59:37.710Z,14.50
2018-12-23T17:03:43.939Z,13.20
2018-12-23T17:07:50.883Z,16.00
2018-12-23T17:11:58.293Z,13.77
2018-12-23T17:16:04.347Z,15.33
2018-12-23T17:20:10.736Z,13.40
2018-12-23T17:24:17.870Z,16.93
2018-12-23T17:28:24.727Z,14.50
2018-12-23T17:32:31.923Z,15.98
2018-12-23T17:36:39.241Z,14.20
2018-12-23T17:40:46.507Z,13.47
2018-12-23T17:44:53.983Z,12.37
2018-12-23T17:49:00.518Z,12.50
2018-12-23T17:53:06.889Z,11.20
2018-12-23T17:57:12.977Z,12.17
2018-12-23T18:01:19.218Z,11.67
2018-12-23T18:05:26.306Z,12.20
2018-12-23T18:09:32.419Z,11.30
2018-12-23T18:13:38.426Z,11.10
2018-12-23T18:17:45.372Z,11.12
2018-12-23T18:21:52.118Z,11.00
2018-12-23T18:25:59.171Z,9.93
2018-12-23T18:30:05.566Z,11.90
2018-12-23T18:34:12.042Z,10.27
2018-12-23T18:38:18.777Z,8.77
2018-12-23T18:42:25.245Z,10.80
2018-12-23T18:46:31.705Z,9.00
2018-12-23T18:50:38.180Z,12.73
2018-12-23T18:54:44.867Z,8.90
2018-12-23T18:58:50.923Z,11.33
2018-12-23T19:03:02.025Z,7.87
2018-12-23T19:07:10.391Z,8.70
2018-12-23T19:11:17.571Z,8.58
2018-12-23T19:15:24.025Z,9.70
2018-12-23T19:19:30.762Z,8.60
2018-12-23T19:23:37.463Z,13.20
2018-12-23T19:27:43.996Z,9.47
2018-12-23T19:31:50.272Z,7.40
2018-12-23T19:35:57.625Z,9.00
2018-12-23T19:40:04.729Z,8.50
2018-12-23T19:44:11.527Z,8.17
2018-12-23T19:48:17.915Z,7.97
2018-12-23T19:52:24.165Z,10.50
2018-12-23T19:56:30.606Z,8.97
2018-12-23T20:00:37.143Z,9.05
2018-12-23T20:04:43.934Z,8.40
2018-12-23T20:08:50.190Z,8.70
2018-12-23T20:12:56.027Z,8.30
2018-12-23T20:17:02.722Z,9.90
2018-12-23T20:21:09.118Z,10.00
2018-12-23T20:25:15.350Z,8.40
2018-12-23T20:29:21.457Z,8.40
2018-12-23T20:33:27.606Z,9.73
2018-12-23T20:37:33.751Z,8.80
2018-12-23T20:41:40.184Z,9.45
2018-12-23T20:45:46.079Z,8.33
2018-12-23T20:49:52.789Z,7.20
2018-12-23T20:53:59.072Z,11.15
2018-12-23T20:58:05.438Z,7.60
2018-12-23T21:02:11.894Z,9.20
2018-12-23T21:06:18.461Z,8.33
2018-12-23T21:10:24.540Z,8.20
2018-12-23T21:14:30.654Z,7.17
2018-12-23T21:18:37.229Z,7.62
2018-12-23T21:22:43.517Z,7.03
2018-12-23T21:26:49.859Z,9.30
2018-12-23T21:30:57.066Z,12.47
2018-12-23T21:35:03.792Z,6.40
2018-12-23T21:39:10.157Z,6.70
2018-12-23T21:47:28.320Z,6.53
2018-12-23T21:51:34.695Z,7.42
2018-12-23T21:55:41.303Z,10.40
2018-12-23T21:59:47.652Z,8.60
2018-12-23T22:03:54.040Z,6.53
2018-12-23T22:08:00.615Z,7.42
2018-12-23T22:12:06.879Z,6.90
2018-12-23T22:16:13.007Z,8.87
2018-12-23T22:20:19.945Z,9.50
2018-12-23T22:24:26.387Z,7.63
2018-12-23T22:28:32.980Z,6.13
2018-12-23T22:32:39.595Z,8.93
2018-12-23T22:36:46.250Z,6.67
2018-12-23T22:40:52.605Z,6.10
2018-12-23T22:44:59.257Z,6.70
2018-12-23T22:49:05.473Z,7.53
2018-12-23T22:53:11.724Z,5.83
2018-12-23T22:57:18.393Z,7.20
2018-12-23T23:01:24.964Z,6.37
2018-12-23T23:05:32.368Z,7.57
2018-12-23T23:09:39.098Z,6.97
2018-12-23T23:13:45.740Z,6.50
2018-12-23T23:17:52.685Z,6.53
2018-12-23T23:21:58.842Z,8.23
2018-12-23T23:26:05.930Z,7.03
2018-12-23T23:30:12.321Z,5.93
2018-12-23T23:34:18.711Z,6.43
2018-12-23T23:38:25.924Z,6.13
2018-12-23T23:42:32.913Z,7.00
2018-12-23T23:46:39.677Z,8.10
2018-12-23T23:50:46.085Z,6.83
2018-12-23T23:54:52.471Z,8.65
2018-12-23T23:58:58.913Z,7.03
